createdAt,value
2022-11-24T00:01:42.131Z,92.31
2022-11-24T00:04:27.371Z,91.54
2022-11-24T00:07:12.756Z,91.98
2022-11-24T00:09:58.049Z,92.53
2022-11-24T00:12:43.788Z,91.94
2022-11-24T00:15:29.142Z,91.32
2022-11-24T00:18:14.329Z,91.21
2022-11-24T00:20:59.957Z,91.89
2022-11-24T00:23:46.185Z,92.10
2022-11-24T00:26:33.903Z,91.41
2022-11-24T00:29:21.358Z,90.98
2022-11-24T00:32:06.654Z,91.46
2022-11-24T00:34:51.848Z,90.60
2022-11-24T00:37:37.343Z,90.82
2022-11-24T00:40:22.801Z,90.77
2022-11-24T00:43:08.199Z,91.01
2022-11-24T00:45:53.541Z,90.67
2022-11-24T00:48:38.625Z,91.14
2022-11-24T00:51:30.197Z,90.80
2022-11-24T00:54:15.427Z,91.50
2022-11-24T00:57:00.731Z,91.54
2022-11-24T00:59:47.333Z,91.98
2022-11-24T01:02:32.445Z,91.05
2022-11-24T01:05:17.926Z,91.28
2022-11-24T01:08:03.526Z,91.72
2022-11-24T01:10:49.044Z,91.87
2022-11-24T01:13:34.825Z,91.73
2022-11-24T01:16:24.449Z,91.40
2022-11-24T01:19:09.687Z,91.32
2022-11-24T01:21:55.267Z,92.16
2022-11-24T01:24:40.544Z,91.54
2022-11-24T01:27:25.794Z,92.45
2022-11-24T01:30:11.409Z,92.14
2022-11-24T01:32:56.896Z,91.90
2022-11-24T01:35:42.379Z,92.39
2022-11-24T01:38:28.184Z,92.85
2022-11-24T01:41:18.603Z,92.87
2022-11-24T01:44:24.530Z,92.97
2022-11-24T01:47:22.253Z,93.43
2022-11-24T01:50:15.995Z,92.97
2022-11-24T01:53:01.914Z,92.85
2022-11-24T01:55:47.713Z,93.12
2022-11-24T01:58:35.729Z,93.23
2022-11-24T02:01:21.135Z,93.15
2022-11-24T02:04:12.830Z,93.04
2022-11-24T02:07:01.427Z,92.68
2022-11-24T02:10:00.962Z,92.11
2022-11-24T02:12:49.582Z,92.24
2022-11-24T02:15:35.765Z,92.78
2022-11-24T02:18:21.579Z,91.85
2022-11-24T02:21:07.756Z,92.08
2022-11-24T02:24:13.213Z,92.71
2022-11-24T02:26:59.059Z,92.47
2022-11-24T02:29:44.751Z,92.66
2022-11-24T02:32:32.356Z,92.26
2022-11-24T02:35:18.101Z,92.45
2022-11-24T02:38:03.313Z,91.96
2022-11-24T02:40:49.506Z,92.70
2022-11-24T02:43:41.959Z,92.26
2022-11-24T02:46:27.369Z,92.33
2022-11-24T02:49:12.571Z,92.77
2022-11-24T02:51:57.909Z,92.58
2022-11-24T02:54:43.155Z,92.33
2022-11-24T02:57:28.588Z,92.47
2022-11-24T03:00:14.253Z,92.56
2022-11-24T03:02:59.626Z,93.28
2022-11-24T03:05:44.818Z,93.33
2022-11-24T03:08:30.233Z,92.96
2022-11-24T03:11:15.397Z,93.26
2022-11-24T03:14:01.736Z,93.87
2022-11-24T03:16:47.444Z,93.07
2022-11-24T03:19:33.188Z,93.74
2022-11-24T03:22:18.731Z,93.04
2022-11-24T03:25:04.549Z,93.23
2022-11-24T03:27:49.801Z,92.85
2022-11-24T03:30:35.407Z,93.55
2022-11-24T03:33:20.909Z,93.83
2022-11-24T03:36:07.004Z,93.40
2022-11-24T03:38:52.572Z,93.23
2022-11-24T03:41:37.991Z,92.38
2022-11-24T03:44:23.223Z,92.84
2022-11-24T03:47:10.442Z,93.39
2022-11-24T03:49:55.453Z,93.61
2022-11-24T03:52:41.238Z,93.67
2022-11-24T03:55:26.407Z,93.54
2022-11-24T03:58:12.055Z,94.35
2022-11-24T04:00:58.254Z,93.50
2022-11-24T04:03:43.795Z,94.00
2022-11-24T04:06:28.905Z,93.70
2022-11-24T04:09:14.260Z,93.17
2022-11-24T04:12:18.600Z,93.65
2022-11-24T04:15:04.135Z,93.50
2022-11-24T04:17:50.320Z,92.80
2022-11-24T04:20:36.411Z,93.05
2022-11-24T04:23:22.092Z,93.25
2022-11-24T04:26:07.995Z,93.59
2022-11-24T04:28:53.544Z,93.54
2022-11-24T04:31:39.188Z,93.14
2022-11-24T04:34:24.303Z,93.67
2022-11-24T04:37:09.737Z,93.56
2022-11-24T04:39:55.337Z,94.21
2022-11-24T04:42:40.866Z,94.24
2022-11-24T04:45:26.068Z,93.80
2022-11-24T04:48:11.270Z,93.25
2022-11-24T04:50:56.976Z,93.22
2022-11-24T04:53:42.412Z,93.69
2022-11-24T04:56:27.453Z,92.91
2022-11-24T04:59:16.183Z,93.10
2022-11-24T05:02:01.506Z,93.25
2022-11-24T05:04:47.578Z,93.33
2022-11-24T05:07:33.154Z,93.47
2022-11-24T05:10:36.737Z,92.40
2022-11-24T05:13:21.666Z,91.81
2022-11-24T05:16:07.409Z,91.88
2022-11-24T05:18:52.917Z,90.77
2022-11-24T05:21:38.214Z,90.54
2022-11-24T05:24:23.330Z,90.47
2022-11-24T05:27:08.260Z,90.38
2022-11-24T05:29:53.563Z,90.67
2022-11-24T05:32:38.872Z,90.46
2022-11-24T05:35:24.357Z,90.46
2022-11-24T05:38:09.507Z,90.19
2022-11-24T05:40:55.024Z,90.32
2022-11-24T05:43:40.230Z,90.67
2022-11-24T05:46:25.419Z,91.30
2022-11-24T05:49:10.850Z,90.91
2022-11-24T05:51:56.031Z,91.16
2022-11-24T05:54:41.402Z,91.18
2022-11-24T05:57:26.927Z,91.07
2022-11-24T06:00:12.805Z,90.94
2022-11-24T06:02:58.738Z,90.52
2022-11-24T06:05:47.071Z,90.38
2022-11-24T06:08:33.691Z,89.84
2022-11-24T06:11:18.818Z,89.59
2022-11-24T06:14:09.670Z,90.01
2022-11-24T06:16:56.297Z,90.34
2022-11-24T06:19:42.351Z,90.08
2022-11-24T06:22:27.828Z,90.48
2022-11-24T06:25:12.968Z,90.04
2022-11-24T06:27:58.324Z,89.78
2022-11-24T06:30:43.782Z,89.13
2022-11-24T06:33:37.279Z,89.17
2022-11-24T06:36:22.414Z,89.50
2022-11-24T06:39:07.979Z,89.91
2022-11-24T06:41:53.427Z,90.01
2022-11-24T06:44:39.270Z,90.21
2022-11-24T06:47:24.626Z,89.96
2022-11-24T06:50:10.610Z,89.77
2022-11-24T06:52:55.809Z,89.89
2022-11-24T06:55:42.293Z,89.70
2022-11-24T06:58:27.991Z,88.38
2022-11-24T07:01:21.099Z,88.69
2022-11-24T07:04:06.051Z,89.78
2022-11-24T07:06:51.628Z,89.38
2022-11-24T07:09:36.790Z,89.61
2022-11-24T07:12:22.313Z,89.56
2022-11-24T07:15:08.319Z,88.93
2022-11-24T07:17:53.769Z,89.20
2022-11-24T07:20:39.572Z,89.22
2022-11-24T07:23:24.628Z,88.97
2022-11-24T07:26:11.018Z,88.23
2022-11-24T07:28:56.546Z,87.60
2022-11-24T07:31:42.402Z,87.49
2022-11-24T07:34:27.493Z,87.63
2022-11-24T07:37:12.778Z,86.54
2022-11-24T07:39:58.348Z,86.47
2022-11-24T07:42:43.336Z,86.79
2022-11-24T07:45:28.566Z,86.93
2022-11-24T07:48:13.674Z,86.89
2022-11-24T07:51:00.455Z,87.38
2022-11-24T07:53:46.084Z,88.16
2022-11-24T07:56:31.376Z,87.10
2022-11-24T07:59:16.948Z,87.59
2022-11-24T08:02:02.462Z,86.99
2022-11-24T08:04:47.491Z,87.52
2022-11-24T08:07:33.028Z,87.65
2022-11-24T08:10:18.303Z,87.37
2022-11-24T08:13:03.496Z,86.48
2022-11-24T08:15:48.861Z,86.51
2022-11-24T08:18:35.515Z,86.19
2022-11-24T08:21:23.312Z,85.89
2022-11-24T08:24:09.052Z,86.22
2022-11-24T08:26:54.531Z,86.89
2022-11-24T08:29:39.859Z,87.15
2022-11-24T08:32:25.268Z,87.40
2022-11-24T08:35:15.102Z,86.53
2022-11-24T08:38:04.828Z,86.95
2022-11-24T08:40:50.231Z,87.35
2022-11-24T08:43:35.843Z,87.63
2022-11-24T08:46:22.106Z,87.43
2022-11-24T08:49:07.605Z,87.13
2022-11-24T08:51:53.205Z,87.45
2022-11-24T08:54:38.403Z,87.07
2022-11-24T08:57:24.649Z,87.80
2022-11-24T09:00:11.174Z,87.08
2022-11-24T09:02:58.043Z,86.48
2022-11-24T09:05:51.886Z,91.13
2022-11-24T09:08:38.453Z,100.00
2022-11-24T09:11:25.207Z,100.00
2022-11-24T09:14:10.571Z,96.03
2022-11-24T09:16:55.741Z,91.77
2022-11-24T09:19:44.760Z,88.69
2022-11-24T09:22:31.018Z,86.83
2022-11-24T09:25:17.257Z,86.78
2022-11-24T09:28:02.522Z,86.32
2022-11-24T09:30:47.656Z,86.19
2022-11-24T09:33:33.812Z,85.67
2022-11-24T09:36:19.944Z,85.46
2022-11-24T09:39:05.381Z,84.94
2022-11-24T09:42:24.942Z,84.69
2022-11-24T09:45:48.897Z,84.64
2022-11-24T09:48:33.299Z,84.13
2022-11-24T09:51:24.699Z,84.52
2022-11-24T09:54:18.328Z,84.14
2022-11-24T09:57:06.241Z,84.04
2022-11-24T09:59:51.392Z,84.24
2022-11-24T10:02:36.887Z,83.78
2022-11-24T10:05:27.052Z,83.53
2022-11-24T10:08:32.749Z,82.07
2022-11-24T10:11:38.469Z,82.37
2022-11-24T10:14:51.478Z,81.85
2022-11-24T10:17:47.300Z,83.04
2022-11-24T10:20:57.284Z,82.53
2022-11-24T10:23:56.408Z,82.21
2022-11-24T10:26:51.396Z,82.11
2022-11-24T10:29:40.621Z,82.52
2022-11-24T10:32:32.355Z,81.58
2022-11-24T10:36:00.560Z,80.86
2022-11-24T10:38:52.687Z,81.12
2022-11-24T10:41:51.588Z,81.77
2022-11-24T10:44:36.900Z,82.02
2022-11-24T10:47:22.769Z,81.63
2022-11-24T10:50:14.488Z,81.57
2022-11-24T10:53:16.799Z,81.35
2022-11-24T10:56:05.071Z,80.06
2022-11-24T10:58:50.593Z,79.68
2022-11-24T11:01:35.910Z,79.19
2022-11-24T11:04:26.678Z,77.64
2022-11-24T11:07:20.723Z,77.87
2022-11-24T11:10:21.914Z,78.29
2022-11-24T11:13:25.006Z,79.21
2022-11-24T11:16:24.455Z,79.51
2022-11-24T11:22:37.545Z,78.83
2022-11-24T11:25:33.801Z,79.27
2022-11-24T11:28:28.813Z,78.27
2022-11-24T11:31:22.009Z,77.97
2022-11-24T11:34:19.245Z,78.75
2022-11-24T11:37:07.198Z,78.58
2022-11-24T11:39:55.020Z,78.98
2022-11-24T11:43:06.119Z,79.05
2022-11-24T11:46:11.617Z,79.27
2022-11-24T11:48:57.135Z,79.01
2022-11-24T11:52:28.413Z,79.29
2022-11-24T11:55:32.574Z,80.00
2022-11-24T11:58:45.869Z,79.48
2022-11-24T12:02:16.369Z,79.87
2022-11-24T12:05:27.670Z,80.38
2022-11-24T12:08:29.354Z,80.28
2022-11-24T12:11:24.318Z,79.76
2022-11-24T12:14:17.461Z,80.62
2022-11-24T12:17:26.570Z,80.90
2022-11-24T12:20:41.797Z,81.19
2022-11-24T12:23:36.397Z,81.06
2022-11-24T12:26:42.057Z,80.64
2022-11-24T12:29:58.685Z,80.19
2022-11-24T12:32:44.028Z,79.86
2022-11-24T12:35:37.064Z,79.87
2022-11-24T12:38:45.196Z,79.14
2022-11-24T12:41:50.050Z,79.26
2022-11-24T12:44:45.147Z,78.63
2022-11-24T12:47:58.951Z,78.86
2022-11-24T12:50:45.921Z,79.16
2022-11-24T12:53:37.434Z,79.02
2022-11-24T12:56:34.653Z,79.43
2022-11-24T12:59:47.297Z,80.67
2022-11-24T13:02:54.698Z,79.38
2022-11-24T13:06:10.625Z,79.03
2022-11-24T13:08:56.764Z,79.31
2022-11-24T13:11:41.943Z,79.26
2022-11-24T13:14:37.541Z,79.21
2022-11-24T13:17:50.001Z,79.42
2022-11-24T13:20:40.415Z,79.01
2022-11-24T13:23:27.868Z,79.37
2022-11-24T13:26:27.398Z,79.12
2022-11-24T13:29:28.054Z,78.48
2022-11-24T13:32:14.333Z,78.58
2022-11-24T13:35:14.565Z,78.95
2022-11-24T13:37:59.932Z,78.90
2022-11-24T13:41:12.959Z,79.38
2022-11-24T13:44:23.295Z,80.30
2022-11-24T13:47:45.358Z,79.93
2022-11-24T13:50:55.882Z,79.96
2022-11-24T13:53:45.501Z,80.00
2022-11-24T13:56:30.849Z,79.58
2022-11-24T13:59:34.160Z,79.74
2022-11-24T14:02:23.180Z,80.03
2022-11-24T14:05:14.576Z,79.75
2022-11-24T14:08:00.374Z,80.06
2022-11-24T14:10:45.873Z,80.25
2022-11-24T14:13:34.571Z,80.20
2022-11-24T14:16:21.904Z,79.94
2022-11-24T14:19:11.101Z,80.11
2022-11-24T14:21:56.537Z,80.15
2022-11-24T14:24:45.406Z,79.93
2022-11-24T14:27:34.463Z,80.80
2022-11-24T14:30:22.241Z,80.27
2022-11-24T14:33:12.533Z,81.11
2022-11-24T14:35:57.540Z,80.57
2022-11-24T14:38:43.761Z,80.97
2022-11-24T14:41:29.119Z,80.58
2022-11-24T14:44:26.385Z,80.65
2022-11-24T14:47:33.832Z,80.59
2022-11-24T14:50:23.177Z,81.00
2022-11-24T14:53:14.686Z,80.95
2022-11-24T14:56:20.020Z,81.10
2022-11-24T14:59:22.733Z,81.31
2022-11-24T15:02:46.232Z,82.37
2022-11-24T15:05:57.110Z,82.53
2022-11-24T15:08:47.061Z,82.63
2022-11-24T15:11:33.604Z,82.99
2022-11-24T15:14:51.945Z,82.11
2022-11-24T15:17:37.212Z,82.44
2022-11-24T15:20:28.574Z,82.79
2022-11-24T15:23:22.881Z,82.87
2022-11-24T15:26:11.421Z,82.91
2022-11-24T15:28:56.915Z,83.42
2022-11-24T15:31:46.466Z,83.32
2022-11-24T15:34:36.572Z,83.43
2022-11-24T15:37:22.297Z,83.78
2022-11-24T15:40:10.496Z,83.33
2022-11-24T15:42:59.605Z,83.50
2022-11-24T15:45:49.417Z,83.83
2022-11-24T15:48:35.001Z,83.81
2022-11-24T15:51:20.370Z,83.67
2022-11-24T15:54:07.126Z,83.81
2022-11-24T15:56:52.479Z,83.94
2022-11-24T15:59:38.587Z,83.64
2022-11-24T16:02:24.145Z,83.70
2022-11-24T16:05:11.170Z,83.83
2022-11-24T16:07:56.453Z,84.07
2022-11-24T16:10:43.373Z,84.17
2022-11-24T16:13:28.707Z,84.45
2022-11-24T16:16:15.604Z,83.76
2022-11-24T16:19:01.051Z,83.70
2022-11-24T16:21:49.630Z,84.20
2022-11-24T16:24:35.299Z,84.26
2022-11-24T16:27:21.017Z,84.15
2022-11-24T16:30:07.242Z,84.40
2022-11-24T16:32:52.792Z,84.37
2022-11-24T16:35:38.345Z,84.70
2022-11-24T16:38:23.598Z,84.08
2022-11-24T16:41:10.419Z,84.82
2022-11-24T16:43:56.339Z,84.52
2022-11-24T16:46:43.192Z,84.82
2022-11-24T16:49:28.661Z,85.24
2022-11-24T16:52:17.444Z,85.44
2022-11-24T16:55:02.718Z,85.94
2022-11-24T16:57:48.375Z,85.58
2022-11-24T17:00:33.533Z,86.30
2022-11-24T17:03:19.012Z,86.04
2022-11-24T17:06:11.154Z,85.92
2022-11-24T17:08:56.697Z,86.07
2022-11-24T17:11:41.948Z,86.32
2022-11-24T17:14:27.589Z,86.19
2022-11-24T17:17:12.750Z,86.08
2022-11-24T17:19:58.208Z,86.38
2022-11-24T17:22:44.142Z,86.63
2022-11-24T17:25:29.285Z,86.27
2022-11-24T17:28:14.961Z,86.34
2022-11-24T17:31:08.929Z,86.29
2022-11-24T17:33:56.807Z,86.80
2022-11-24T17:36:44.672Z,86.47
2022-11-24T17:39:30.079Z,86.88
2022-11-24T17:42:15.063Z,86.81
2022-11-24T17:45:00.527Z,86.73
2022-11-24T17:47:45.742Z,86.36
2022-11-24T17:50:31.321Z,85.84
2022-11-24T17:54:13.580Z,85.41
2022-11-24T17:57:07.904Z,85.84
2022-11-24T17:59:53.265Z,85.55
2022-11-24T18:02:38.842Z,85.30
2022-11-24T18:05:24.357Z,85.28
2022-11-24T18:08:11.787Z,85.54
2022-11-24T18:11:06.335Z,85.26
2022-11-24T18:13:59.982Z,85.07
2022-11-24T18:16:46.000Z,85.12
2022-11-24T18:19:31.073Z,85.21
2022-11-24T18:22:16.425Z,84.91
2022-11-24T18:25:01.965Z,85.03
2022-11-24T18:27:48.010Z,85.73
2022-11-24T18:30:33.151Z,85.59
2022-11-24T18:33:19.117Z,85.48
2022-11-24T18:36:06.742Z,85.93
2022-11-24T18:38:52.096Z,85.38
2022-11-24T18:41:39.344Z,85.96
2022-11-24T18:44:24.665Z,86.06
2022-11-24T18:47:10.152Z,87.00
2022-11-24T18:49:55.725Z,87.20
2022-11-24T18:52:41.052Z,87.87
2022-11-24T18:55:26.612Z,87.58
2022-11-24T18:58:11.940Z,87.25
2022-11-24T19:01:16.804Z,87.37
2022-11-24T19:04:02.957Z,87.00
2022-11-24T19:06:48.422Z,86.96
2022-11-24T19:09:33.977Z,87.46
2022-11-24T19:12:28.530Z,87.34
2022-11-24T19:15:26.904Z,88.03
2022-11-24T19:18:11.937Z,88.28
2022-11-24T19:20:58.123Z,88.93
2022-11-24T19:23:43.320Z,89.41
2022-11-24T19:26:28.573Z,88.99
2022-11-24T19:29:13.761Z,89.37
2022-11-24T19:31:59.259Z,88.86
2022-11-24T19:34:44.708Z,89.15
2022-11-24T19:37:30.109Z,89.33
2022-11-24T19:40:15.837Z,89.23
2022-11-24T19:43:01.001Z,88.76
2022-11-24T19:45:46.610Z,89.18
2022-11-24T19:48:54.513Z,89.66
2022-11-24T19:51:39.894Z,89.36
2022-11-24T19:54:25.291Z,89.75
2022-11-24T19:57:10.570Z,90.07
2022-11-24T19:59:55.638Z,90.86
2022-11-24T20:02:41.340Z,90.17
2022-11-24T20:05:26.435Z,90.36
2022-11-24T20:08:11.807Z,90.19
2022-11-24T20:11:03.762Z,90.23
2022-11-24T20:13:49.830Z,90.23
2022-11-24T20:16:35.552Z,90.19
2022-11-24T20:19:20.827Z,89.57
2022-11-24T20:22:06.314Z,90.21
2022-11-24T20:24:51.462Z,89.99
2022-11-24T20:27:36.992Z,89.82
2022-11-24T20:30:22.355Z,90.42
2022-11-24T20:33:07.745Z,90.33
2022-11-24T20:35:53.109Z,90.43
2022-11-24T20:38:39.668Z,90.53
2022-11-24T20:41:27.677Z,89.66
2022-11-24T20:44:15.557Z,90.41
2022-11-24T20:47:02.779Z,90.25
2022-11-24T20:49:49.078Z,90.29
2022-11-24T20:52:34.712Z,90.32
2022-11-24T20:55:19.936Z,90.25
2022-11-24T20:58:05.312Z,91.00
2022-11-24T21:00:50.743Z,90.87
2022-11-24T21:03:42.625Z,90.31
2022-11-24T21:06:28.957Z,90.79
2022-11-24T21:09:14.541Z,90.27
2022-11-24T21:12:00.357Z,90.26
2022-11-24T21:14:45.865Z,90.15
2022-11-24T21:17:32.521Z,90.14
2022-11-24T21:20:19.468Z,89.79
2022-11-24T21:23:05.070Z,89.83
2022-11-24T21:25:50.223Z,89.77
2022-11-24T21:28:35.678Z,89.71
2022-11-24T21:31:21.328Z,89.69
2022-11-24T21:34:07.962Z,89.77
2022-11-24T21:36:53.540Z,90.13
2022-11-24T21:39:40.800Z,90.02
2022-11-24T21:42:26.168Z,89.57
2022-11-24T21:45:11.717Z,90.22
2022-11-24T21:47:56.965Z,90.62
2022-11-24T21:50:42.202Z,90.76
2022-11-24T21:53:32.333Z,91.34
2022-11-24T21:56:20.341Z,91.14
2022-11-24T21:59:05.508Z,91.31
2022-11-24T22:01:51.267Z,91.33
2022-11-24T22:04:36.664Z,91.00
2022-11-24T22:07:22.002Z,91.33
2022-11-24T22:10:08.002Z,90.84
2022-11-24T22:12:53.281Z,90.72
2022-11-24T22:15:38.772Z,90.89
2022-11-24T22:18:24.226Z,90.73
2022-11-24T22:21:15.511Z,90.58
2022-11-24T22:24:01.156Z,90.44
2022-11-24T22:26:47.633Z,91.04
2022-11-24T22:29:33.015Z,90.16
2022-11-24T22:32:18.642Z,91.32
2022-11-24T22:35:04.211Z,91.08
2022-11-24T22:37:49.657Z,91.58
2022-11-24T22:40:34.937Z,91.34
2022-11-24T22:43:23.097Z,90.32
2022-11-24T22:46:11.716Z,91.08
2022-11-24T22:48:59.855Z,91.32
2022-11-24T22:51:45.099Z,90.56
2022-11-24T22:54:30.560Z,91.41
2022-11-24T22:57:15.970Z,90.79
2022-11-24T23:00:01.427Z,90.96
2022-11-24T23:02:47.656Z,91.24
2022-11-24T23:05:33.363Z,91.56
2022-11-24T23:08:19.110Z,90.62
2022-11-24T23:11:09.213Z,90.71
2022-11-24T23:13:56.411Z,91.67
2022-11-24T23:16:42.984Z,90.55
2022-11-24T23:19:28.298Z,90.53
2022-11-24T23:22:13.543Z,90.17
2022-11-24T23:24:59.093Z,90.61
2022-11-24T23:27:44.589Z,90.59
2022-11-24T23:30:30.141Z,90.62
2022-11-24T23:33:15.315Z,90.85
2022-11-24T23:36:20.992Z,89.77
2022-11-24T23:39:11.628Z,90.69
2022-11-24T23:41:57.055Z,90.50
2022-11-24T23:44:42.631Z,90.04
2022-11-24T23:47:28.797Z,89.83
2022-11-24T23:50:14.419Z,90.16
2022-11-24T23:52:59.525Z,89.90
2022-11-24T23:55:53.085Z,89.19
2022-11-24T23:58:38.289Z,88.95
